sensor_id;sensor_type;location;lat;lon;timestamp;P1;durP1;ratioP1;P2;durP2;ratioP2
16735;SDS011;17990;49.548;9.730;2024-01-16T00:02:00;5.83;;;2.70;;
16735;SDS011;17990;49.548;9.730;2024-01-16T00:04:28;5.63;;;2.73;;
16735;SDS011;17990;49.548;9.730;2024-01-16T00:06:56;3.43;;;2.40;;
16735;SDS011;17990;49.548;9.730;2024-01-16T00:09:22;9.33;;;2.60;;
16735;SDS011;17990;49.548;9.730;2024-01-16T00:11:49;6.90;;;3.07;;
16735;SDS011;17990;49.548;9.730;2024-01-16T00:14:16;6.50;;;3.10;;
16735;SDS011;17990;49.548;9.730;2024-01-16T00:16:43;5.03;;;2.67;;
16735;SDS011;17990;49.548;9.730;2024-01-16T00:19:10;7.87;;;2.87;;
16735;SDS011;17990;49.548;9.730;2024-01-16T00:21:42;4.10;;;2.93;;
16735;SDS011;17990;49.548;9.730;2024-01-16T00:24:11;6.80;;;3.37;;
16735;SDS011;17990;49.548;9.730;2024-01-16T00:26:37;5.70;;;3.57;;
16735;SDS011;17990;49.548;9.730;2024-01-16T00:29:04;12.40;;;3.27;;
16735;SDS011;17990;49.548;9.730;2024-01-16T00:31:31;6.50;;;3.37;;
16735;SDS011;17990;49.548;9.730;2024-01-16T00:33:58;5.07;;;3.00;;
16735;SDS011;17990;49.548;9.730;2024-01-16T00:36:24;6.03;;;3.40;;
16735;SDS011;17990;49.548;9.730;2024-01-16T00:38:52;5.93;;;3.20;;
16735;SDS011;17990;49.548;9.730;2024-01-16T00:41:19;5.13;;;3.53;;
16735;SDS011;17990;49.548;9.730;2024-01-16T00:43:46;5.00;;;3.17;;
16735;SDS011;17990;49.548;9.730;2024-01-16T00:46:13;7.17;;;3.53;;
16735;SDS011;17990;49.548;9.730;2024-01-16T00:48:39;4.47;;;3.10;;
16735;SDS011;17990;49.548;9.730;2024-01-16T00:51:06;8.33;;;4.00;;
16735;SDS011;17990;49.548;9.730;2024-01-16T00:53:33;6.57;;;3.40;;
16735;SDS011;17990;49.548;9.730;2024-01-16T00:56:06;6.43;;;3.93;;
16735;SDS011;17990;49.548;9.730;2024-01-16T00:58:33;8.07;;;4.03;;
16735;SDS011;17990;49.548;9.730;2024-01-16T01:01:00;9.20;;;3.93;;
16735;SDS011;17990;49.548;9.730;2024-01-16T01:03:26;9.07;;;3.60;;
16735;SDS011;17990;49.548;9.730;2024-01-16T01:05:54;8.07;;;3.50;;
16735;SDS011;17990;49.548;9.730;2024-01-16T01:08:21;7.10;;;3.70;;
16735;SDS011;17990;49.548;9.730;2024-01-16T01:10:48;8.07;;;4.20;;
16735;SDS011;17990;49.548;9.730;2024-01-16T01:13:16;7.83;;;4.00;;
16735;SDS011;17990;49.548;9.730;2024-01-16T01:15:42;9.97;;;3.50;;
16735;SDS011;17990;49.548;9.730;2024-01-16T01:18:09;6.43;;;3.67;;
16735;SDS011;17990;49.548;9.730;2024-01-16T01:20:36;8.00;;;4.00;;
16735;SDS011;17990;49.548;9.730;2024-01-16T01:23:02;7.60;;;3.73;;
16735;SDS011;17990;49.548;9.730;2024-01-16T01:25:29;9.40;;;3.70;;
16735;SDS011;17990;49.548;9.730;2024-01-16T01:27:56;6.70;;;3.90;;
16735;SDS011;17990;49.548;9.730;2024-01-16T01:30:24;6.53;;;3.97;;
16735;SDS011;17990;49.548;9.730;2024-01-16T01:32:51;7.40;;;3.97;;
16735;SDS011;17990;49.548;9.730;2024-01-16T01:35:18;9.07;;;4.00;;
16735;SDS011;17990;49.548;9.730;2024-01-16T01:37:45;8.83;;;4.20;;
16735;SDS011;17990;49.548;9.730;2024-01-16T01:40:12;8.13;;;3.87;;
16735;SDS011;17990;49.548;9.730;2024-01-16T01:42:40;8.57;;;4.00;;
16735;SDS011;17990;49.548;9.730;2024-01-16T01:45:08;9.57;;;3.97;;
16735;SDS011;17990;49.548;9.730;2024-01-16T01:47:37;8.60;;;4.33;;
16735;SDS011;17990;49.548;9.730;2024-01-16T01:50:04;5.90;;;3.50;;
16735;SDS011;17990;49.548;9.730;2024-01-16T01:52:33;9.43;;;3.83;;
16735;SDS011;17990;49.548;9.730;2024-01-16T01:55:00;7.73;;;4.17;;
16735;SDS011;17990;49.548;9.730;2024-01-16T01:57:31;6.10;;;3.97;;
16735;SDS011;17990;49.548;9.730;2024-01-16T01:59:59;7.00;;;4.17;;
16735;SDS011;17990;49.548;9.730;2024-01-16T02:02:26;6.80;;;3.63;;
16735;SDS011;17990;49.548;9.730;2024-01-16T02:04:55;7.23;;;4.03;;
16735;SDS011;17990;49.548;9.730;2024-01-16T02:07:22;5.83;;;3.87;;
16735;SDS011;17990;49.548;9.730;2024-01-16T02:09:50;11.07;;;3.97;;
16735;SDS011;17990;49.548;9.730;2024-01-16T02:12:17;8.80;;;4.43;;
16735;SDS011;17990;49.548;9.730;2024-01-16T02:14:44;7.50;;;4.10;;
16735;SDS011;17990;49.548;9.730;2024-01-16T02:17:11;9.10;;;4.37;;
16735;SDS011;17990;49.548;9.730;2024-01-16T02:19:37;6.93;;;4.07;;
16735;SDS011;17990;49.548;9.730;2024-01-16T02:22:06;9.60;;;4.33;;
16735;SDS011;17990;49.548;9.730;2024-01-16T02:24:36;7.33;;;4.43;;
16735;SDS011;17990;49.548;9.730;2024-01-16T02:27:03;6.90;;;4.00;;
16735;SDS011;17990;49.548;9.730;2024-01-16T02:29:30;6.67;;;3.73;;
16735;SDS011;17990;49.548;9.730;2024-01-16T02:31:57;8.50;;;4.33;;
16735;SDS011;17990;49.548;9.730;2024-01-16T02:34:24;8.40;;;4.07;;
16735;SDS011;17990;49.548;9.730;2024-01-16T02:36:50;6.40;;;3.87;;
16735;SDS011;17990;49.548;9.730;2024-01-16T02:39:17;6.70;;;4.20;;
16735;SDS011;17990;49.548;9.730;2024-01-16T02:41:46;8.73;;;3.90;;
16735;SDS011;17990;49.548;9.730;2024-01-16T02:44:13;11.23;;;4.60;;
16735;SDS011;17990;49.548;9.730;2024-01-16T02:46:39;9.30;;;4.43;;
16735;SDS011;17990;49.548;9.730;2024-01-16T02:49:06;7.50;;;4.40;;
16735;SDS011;17990;49.548;9.730;2024-01-16T02:51:33;8.53;;;4.20;;
16735;SDS011;17990;49.548;9.730;2024-01-16T02:54:00;7.57;;;4.43;;
16735;SDS011;17990;49.548;9.730;2024-01-16T02:56:26;8.23;;;4.33;;
16735;SDS011;17990;49.548;9.730;2024-01-16T02:58:54;8.07;;;4.43;;
16735;SDS011;17990;49.548;9.730;2024-01-16T03:01:21;8.20;;;4.40;;
16735;SDS011;17990;49.548;9.730;2024-01-16T03:03:48;8.53;;;4.33;;
16735;SDS011;17990;49.548;9.730;2024-01-16T03:06:21;8.10;;;4.50;;
16735;SDS011;17990;49.548;9.730;2024-01-16T03:08:48;7.53;;;4.00;;
16735;SDS011;17990;49.548;9.730;2024-01-16T03:11:15;7.57;;;4.37;;
16735;SDS011;17990;49.548;9.730;2024-01-16T03:13:42;7.70;;;4.47;;
16735;SDS011;17990;49.548;9.730;2024-01-16T03:16:10;6.77;;;4.20;;
16735;SDS011;17990;49.548;9.730;2024-01-16T03:18:37;8.67;;;4.37;;
16735;SDS011;17990;49.548;9.730;2024-01-16T03:21:03;10.03;;;4.00;;
16735;SDS011;17990;49.548;9.730;2024-01-16T03:23:32;8.30;;;3.87;;
16735;SDS011;17990;49.548;9.730;2024-01-16T03:25:59;9.07;;;4.73;;
16735;SDS011;17990;49.548;9.730;2024-01-16T03:28:26;9.30;;;4.50;;
16735;SDS011;17990;49.548;9.730;2024-01-16T03:30:52;9.60;;;4.63;;
16735;SDS011;17990;49.548;9.730;2024-01-16T03:33:21;7.53;;;4.80;;
16735;SDS011;17990;49.548;9.730;2024-01-16T03:35:48;8.27;;;4.47;;
16735;SDS011;17990;49.548;9.730;2024-01-16T03:38:15;7.53;;;4.40;;
16735;SDS011;17990;49.548;9.730;2024-01-16T03:40:42;12.43;;;4.53;;
16735;SDS011;17990;49.548;9.730;2024-01-16T03:43:08;8.27;;;4.77;;
16735;SDS011;17990;49.548;9.730;2024-01-16T03:45:35;7.60;;;4.13;;
16735;SDS011;17990;49.548;9.730;2024-01-16T03:48:02;9.83;;;4.50;;
16735;SDS011;17990;49.548;9.730;2024-01-16T03:50:31;8.33;;;4.37;;
16735;SDS011;17990;49.548;9.730;2024-01-16T03:52:58;8.70;;;4.93;;
16735;SDS011;17990;49.548;9.730;2024-01-16T03:55:25;9.43;;;4.87;;
16735;SDS011;17990;49.548;9.730;2024-01-16T03:57:52;8.97;;;4.50;;
16735;SDS011;17990;49.548;9.730;2024-01-16T04:00:19;8.37;;;4.60;;
16735;SDS011;17990;49.548;9.730;2024-01-16T04:02:46;9.03;;;4.67;;
16735;SDS011;17990;49.548;9.730;2024-01-16T04:05:12;8.70;;;4.37;;
16735;SDS011;17990;49.548;9.730;2024-01-16T04:07:40;10.27;;;4.77;;
16735;SDS011;17990;49.548;9.730;2024-01-16T04:10:07;9.30;;;4.70;;
16735;SDS011;17990;49.548;9.730;2024-01-16T04:12:34;9.13;;;5.03;;
16735;SDS011;17990;49.548;9.730;2024-01-16T04:15:01;9.00;;;4.93;;
16735;SDS011;17990;49.548;9.730;2024-01-16T04:17:28;8.23;;;4.60;;
16735;SDS011;17990;49.548;9.730;2024-01-16T04:19:54;7.67;;;4.60;;
16735;SDS011;17990;49.548;9.730;2024-01-16T04:22:21;8.47;;;4.40;;
16735;SDS011;17990;49.548;9.730;2024-01-16T04:24:49;10.20;;;4.73;;
16735;SDS011;17990;49.548;9.730;2024-01-16T04:27:16;11.30;;;4.70;;
16735;SDS011;17990;49.548;9.730;2024-01-16T04:29:43;8.93;;;4.90;;
16735;SDS011;17990;49.548;9.730;2024-01-16T04:32:10;7.97;;;5.00;;
16735;SDS011;17990;49.548;9.730;2024-01-16T04:34:36;8.13;;;5.07;;
16735;SDS011;17990;49.548;9.730;2024-01-16T04:37:03;9.23;;;5.17;;
16735;SDS011;17990;49.548;9.730;2024-01-16T04:39:30;10.83;;;5.57;;
16735;SDS011;17990;49.548;9.730;2024-01-16T04:41:58;9.43;;;5.50;;
16735;SDS011;17990;49.548;9.730;2024-01-16T04:44:24;12.93;;;5.50;;
16735;SDS011;17990;49.548;9.730;2024-01-16T04:46:51;7.27;;;5.07;;
16735;SDS011;17990;49.548;9.730;2024-01-16T04:49:18;11.10;;;4.70;;
16735;SDS011;17990;49.548;9.730;2024-01-16T04:51:44;11.20;;;6.00;;
16735;SDS011;17990;49.548;9.730;2024-01-16T04:54:12;9.33;;;5.20;;
16735;SDS011;17990;49.548;9.730;2024-01-16T04:56:39;11.60;;;6.10;;
16735;SDS011;17990;49.548;9.730;2024-01-16T04:59:07;10.57;;;5.37;;
16735;SDS011;17990;49.548;9.730;2024-01-16T05:01:33;9.73;;;4.57;;
16735;SDS011;17990;49.548;9.730;2024-01-16T05:04:00;10.80;;;5.53;;
16735;SDS011;17990;49.548;9.730;2024-01-16T05:06:28;12.30;;;5.83;;
16735;SDS011;17990;49.548;9.730;2024-01-16T05:08:55;13.53;;;5.50;;
16735;SDS011;17990;49.548;9.730;2024-01-16T05:11:22;13.07;;;5.67;;
16735;SDS011;17990;49.548;9.730;2024-01-16T05:13:49;12.13;;;5.97;;
16735;SDS011;17990;49.548;9.730;2024-01-16T05:16:23;12.00;;;5.27;;
16735;SDS011;17990;49.548;9.730;2024-01-16T05:18:50;10.17;;;5.50;;
16735;SDS011;17990;49.548;9.730;2024-01-16T05:21:17;11.33;;;5.40;;
16735;SDS011;17990;49.548;9.730;2024-01-16T05:23:43;13.40;;;4.93;;
16735;SDS011;17990;49.548;9.730;2024-01-16T05:26:10;12.17;;;4.70;;
16735;SDS011;17990;49.548;9.730;2024-01-16T05:28:38;9.10;;;4.87;;
16735;SDS011;17990;49.548;9.730;2024-01-16T05:31:05;10.97;;;5.93;;
16735;SDS011;17990;49.548;9.730;2024-01-16T05:33:33;12.50;;;5.13;;
16735;SDS011;17990;49.548;9.730;2024-01-16T05:36:00;9.07;;;4.53;;
16735;SDS011;17990;49.548;9.730;2024-01-16T05:38:27;11.03;;;5.13;;
16735;SDS011;17990;49.548;9.730;2024-01-16T05:40:54;10.40;;;5.63;;
16735;SDS011;17990;49.548;9.730;2024-01-16T05:43:20;10.53;;;5.10;;
16735;SDS011;17990;49.548;9.730;2024-01-16T05:45:47;11.73;;;5.37;;
16735;SDS011;17990;49.548;9.730;2024-01-16T05:48:15;9.90;;;5.17;;
16735;SDS011;17990;49.548;9.730;2024-01-16T05:50:43;9.30;;;5.10;;
16735;SDS011;17990;49.548;9.730;2024-01-16T05:53:10;12.13;;;6.30;;
16735;SDS011;17990;49.548;9.730;2024-01-16T05:55:36;14.77;;;6.30;;
16735;SDS011;17990;49.548;9.730;2024-01-16T05:58:03;12.37;;;6.23;;
16735;SDS011;17990;49.548;9.730;2024-01-16T06:00:30;20.33;;;9.97;;
16735;SDS011;17990;49.548;9.730;2024-01-16T06:02:58;19.10;;;10.20;;
16735;SDS011;17990;49.548;9.730;2024-01-16T06:05:25;19.07;;;9.67;;
16735;SDS011;17990;49.548;9.730;2024-01-16T06:07:53;12.73;;;6.93;;
16735;SDS011;17990;49.548;9.730;2024-01-16T06:10:20;11.53;;;5.57;;
16735;SDS011;17990;49.548;9.730;2024-01-16T06:12:47;11.00;;;6.20;;
16735;SDS011;17990;49.548;9.730;2024-01-16T06:15:13;10.77;;;5.90;;
16735;SDS011;17990;49.548;9.730;2024-01-16T06:17:40;12.07;;;6.30;;
16735;SDS011;17990;49.548;9.730;2024-01-16T06:20:07;12.13;;;6.40;;
16735;SDS011;17990;49.548;9.730;2024-01-16T06:22:35;12.03;;;6.23;;
16735;SDS011;17990;49.548;9.730;2024-01-16T06:25:04;10.63;;;6.27;;
16735;SDS011;17990;49.548;9.730;2024-01-16T06:27:31;14.00;;;6.70;;
16735;SDS011;17990;49.548;9.730;2024-01-16T06:29:58;16.33;;;6.47;;
16735;SDS011;17990;49.548;9.730;2024-01-16T06:32:25;9.83;;;6.57;;
16735;SDS011;17990;49.548;9.730;2024-01-16T06:34:51;12.73;;;7.47;;
16735;SDS011;17990;49.548;9.730;2024-01-16T06:37:18;15.00;;;7.37;;
16735;SDS011;17990;49.548;9.730;2024-01-16T06:39:45;15.07;;;7.57;;
16735;SDS011;17990;49.548;9.730;2024-01-16T06:42:13;18.93;;;6.93;;
16735;SDS011;17990;49.548;9.730;2024-01-16T06:44:40;13.97;;;7.10;;
16735;SDS011;17990;49.548;9.730;2024-01-16T06:47:06;13.60;;;6.77;;
16735;SDS011;17990;49.548;9.730;2024-01-16T06:49:33;13.93;;;7.03;;
16735;SDS011;17990;49.548;9.730;2024-01-16T06:52:00;14.63;;;7.57;;
16735;SDS011;17990;49.548;9.730;2024-01-16T06:54:27;17.73;;;7.80;;
16735;SDS011;17990;49.548;9.730;2024-01-16T06:56:53;13.90;;;7.40;;
16735;SDS011;17990;49.548;9.730;2024-01-16T06:59:21;13.60;;;6.23;;
16735;SDS011;17990;49.548;9.730;2024-01-16T07:01:48;10.37;;;6.27;;
16735;SDS011;17990;49.548;9.730;2024-01-16T07:04:15;11.67;;;6.73;;
16735;SDS011;17990;49.548;9.730;2024-01-16T07:06:42;14.90;;;8.30;;
16735;SDS011;17990;49.548;9.730;2024-01-16T07:09:09;13.97;;;6.37;;
16735;SDS011;17990;49.548;9.730;2024-01-16T07:11:36;18.13;;;7.87;;
16735;SDS011;17990;49.548;9.730;2024-01-16T07:14:07;13.93;;;7.73;;
16735;SDS011;17990;49.548;9.730;2024-01-16T07:16:36;17.30;;;8.83;;
16735;SDS011;17990;49.548;9.730;2024-01-16T07:19:03;18.60;;;8.50;;
16735;SDS011;17990;49.548;9.730;2024-01-16T07:21:29;22.60;;;9.70;;
16735;SDS011;17990;49.548;9.730;2024-01-16T07:23:56;23.03;;;9.57;;
16735;SDS011;17990;49.548;9.730;2024-01-16T07:26:23;19.17;;;9.03;;
16735;SDS011;17990;49.548;9.730;2024-01-16T07:28:50;15.37;;;7.83;;
16735;SDS011;17990;49.548;9.730;2024-01-16T07:31:17;18.07;;;7.43;;
16735;SDS011;17990;49.548;9.730;2024-01-16T07:33:46;19.67;;;8.67;;
16735;SDS011;17990;49.548;9.730;2024-01-16T07:36:13;15.27;;;7.10;;
16735;SDS011;17990;49.548;9.730;2024-01-16T07:38:40;15.13;;;7.50;;
16735;SDS011;17990;49.548;9.730;2024-01-16T07:41:07;14.27;;;7.40;;
16735;SDS011;17990;49.548;9.730;2024-01-16T07:43:34;13.87;;;6.77;;
16735;SDS011;17990;49.548;9.730;2024-01-16T07:46:01;12.97;;;6.80;;
16735;SDS011;17990;49.548;9.730;2024-01-16T07:48:28;15.80;;;6.60;;
16735;SDS011;17990;49.548;9.730;2024-01-16T07:50:56;21.17;;;10.23;;
16735;SDS011;17990;49.548;9.730;2024-01-16T07:53:23;22.97;;;12.20;;
16735;SDS011;17990;49.548;9.730;2024-01-16T07:55:52;17.23;;;8.97;;
16735;SDS011;17990;49.548;9.730;2024-01-16T07:58:19;16.17;;;7.33;;
16735;SDS011;17990;49.548;9.730;2024-01-16T08:00:46;14.37;;;6.97;;
16735;SDS011;17990;49.548;9.730;2024-01-16T08:03:13;14.60;;;7.90;;
16735;SDS011;17990;49.548;9.730;2024-01-16T08:05:40;14.40;;;7.00;;
16735;SDS011;17990;49.548;9.730;2024-01-16T08:08:09;12.63;;;6.73;;
16735;SDS011;17990;49.548;9.730;2024-01-16T08:10:36;14.47;;;7.50;;
16735;SDS011;17990;49.548;9.730;2024-01-16T08:13:03;13.63;;;6.80;;
16735;SDS011;17990;49.548;9.730;2024-01-16T08:15:30;12.40;;;6.27;;
16735;SDS011;17990;49.548;9.730;2024-01-16T08:17:57;12.23;;;6.57;;
16735;SDS011;17990;49.548;9.730;2024-01-16T08:20:24;13.97;;;5.80;;
16735;SDS011;17990;49.548;9.730;2024-01-16T08:22:50;13.73;;;7.40;;
16735;SDS011;17990;49.548;9.730;2024-01-16T08:25:19;11.63;;;5.90;;
16735;SDS011;17990;49.548;9.730;2024-01-16T08:27:45;9.97;;;6.03;;
16735;SDS011;17990;49.548;9.730;2024-01-16T08:30:12;10.97;;;6.97;;
16735;SDS011;17990;49.548;9.730;2024-01-16T08:32:39;11.83;;;6.37;;
16735;SDS011;17990;49.548;9.730;2024-01-16T08:35:06;12.77;;;5.63;;
16735;SDS011;17990;49.548;9.730;2024-01-16T08:37:33;14.20;;;5.77;;
16735;SDS011;17990;49.548;9.730;2024-01-16T08:40:00;13.83;;;6.17;;
16735;SDS011;17990;49.548;9.730;2024-01-16T08:42:29;11.23;;;5.40;;
16735;SDS011;17990;49.548;9.730;2024-01-16T08:44:56;11.30;;;5.37;;
16735;SDS011;17990;49.548;9.730;2024-01-16T08:47:23;10.70;;;5.60;;
16735;SDS011;17990;49.548;9.730;2024-01-16T08:49:50;11.20;;;5.47;;
16735;SDS011;17990;49.548;9.730;2024-01-16T08:52:17;10.83;;;5.60;;
16735;SDS011;17990;49.548;9.730;2024-01-16T08:54:44;8.23;;;4.83;;
16735;SDS011;17990;49.548;9.730;2024-01-16T08:57:11;11.03;;;5.50;;
16735;SDS011;17990;49.548;9.730;2024-01-16T08:59:39;11.13;;;5.80;;
16735;SDS011;17990;49.548;9.730;2024-01-16T09:02:06;8.70;;;4.73;;
16735;SDS011;17990;49.548;9.730;2024-01-16T09:04:33;11.03;;;4.80;;
16735;SDS011;17990;49.548;9.730;2024-01-16T09:07:00;10.93;;;5.13;;
16735;SDS011;17990;49.548;9.730;2024-01-16T09:09:29;10.47;;;4.67;;
16735;SDS011;17990;49.548;9.730;2024-01-16T09:11:56;12.00;;;5.57;;
16735;SDS011;17990;49.548;9.730;2024-01-16T09:14:24;8.30;;;4.47;;
16735;SDS011;17990;49.548;9.730;2024-01-16T09:16:52;9.20;;;4.43;;
16735;SDS011;17990;49.548;9.730;2024-01-16T09:19:20;12.63;;;5.47;;
16735;SDS011;17990;49.548;9.730;2024-01-16T09:21:47;10.90;;;5.17;;
16735;SDS011;17990;49.548;9.730;2024-01-16T09:24:13;11.73;;;5.03;;
16735;SDS011;17990;49.548;9.730;2024-01-16T09:26:40;9.47;;;4.50;;
16735;SDS011;17990;49.548;9.730;2024-01-16T09:29:07;9.37;;;4.60;;
16735;SDS011;17990;49.548;9.730;2024-01-16T09:31:35;8.57;;;4.10;;
16735;SDS011;17990;49.548;9.730;2024-01-16T09:34:03;7.23;;;4.03;;
16735;SDS011;17990;49.548;9.730;2024-01-16T09:36:30;8.33;;;4.20;;
16735;SDS011;17990;49.548;9.730;2024-01-16T09:38:56;9.37;;;4.13;;
16735;SDS011;17990;49.548;9.730;2024-01-16T09:41:23;7.33;;;3.83;;
16735;SDS011;17990;49.548;9.730;2024-01-16T09:43:51;7.07;;;4.23;;
16735;SDS011;17990;49.548;9.730;2024-01-16T09:46:17;8.27;;;3.90;;
16735;SDS011;17990;49.548;9.730;2024-01-16T09:48:48;8.07;;;4.13;;
16735;SDS011;17990;49.548;9.730;2024-01-16T09:51:18;7.87;;;4.10;;
16735;SDS011;17990;49.548;9.730;2024-01-16T09:53:45;11.13;;;3.87;;
16735;SDS011;17990;49.548;9.730;2024-01-16T09:56:13;7.60;;;4.00;;
16735;SDS011;17990;49.548;9.730;2024-01-16T09:58:42;8.57;;;3.60;;
16735;SDS011;17990;49.548;9.730;2024-01-16T10:01:10;7.73;;;3.73;;
16735;SDS011;17990;49.548;9.730;2024-01-16T10:03:38;12.60;;;4.47;;
16735;SDS011;17990;49.548;9.730;2024-01-16T10:06:06;7.17;;;3.87;;
16735;SDS011;17990;49.548;9.730;2024-01-16T10:08:35;11.73;;;4.13;;
16735;SDS011;17990;49.548;9.730;2024-01-16T10:11:02;6.07;;;3.67;;
16735;SDS011;17990;49.548;9.730;2024-01-16T10:13:29;6.63;;;3.70;;
16735;SDS011;17990;49.548;9.730;2024-01-16T10:15:58;11.63;;;4.17;;
16735;SDS011;17990;49.548;9.730;2024-01-16T10:18:25;6.73;;;3.50;;
16735;SDS011;17990;49.548;9.730;2024-01-16T10:20:53;7.57;;;3.30;;
16735;SDS011;17990;49.548;9.730;2024-01-16T10:23:23;11.23;;;4.00;;
16735;SDS011;17990;49.548;9.730;2024-01-16T10:28:34;9.23;;;4.17;;
16735;SDS011;17990;49.548;9.730;2024-01-16T10:31:01;7.90;;;3.53;;
16735;SDS011;17990;49.548;9.730;2024-01-16T10:33:29;7.63;;;3.87;;
16735;SDS011;17990;49.548;9.730;2024-01-16T10:36:06;11.20;;;3.67;;
16735;SDS011;17990;49.548;9.730;2024-01-16T10:38:35;8.07;;;4.03;;
16735;SDS011;17990;49.548;9.730;2024-01-16T10:41:08;11.63;;;3.67;;
16735;SDS011;17990;49.548;9.730;2024-01-16T10:43:35;10.73;;;4.27;;
16735;SDS011;17990;49.548;9.730;2024-01-16T10:46:09;8.43;;;3.80;;
16735;SDS011;17990;49.548;9.730;2024-01-16T10:48:37;7.37;;;4.20;;
16735;SDS011;17990;49.548;9.730;2024-01-16T10:51:05;7.10;;;3.80;;
16735;SDS011;17990;49.548;9.730;2024-01-16T10:53:33;9.67;;;3.90;;
16735;SDS011;17990;49.548;9.730;2024-01-16T10:56:01;7.10;;;3.83;;
16735;SDS011;17990;49.548;9.730;2024-01-16T10:58:30;8.00;;;4.37;;
16735;SDS011;17990;49.548;9.730;2024-01-16T11:01:00;8.53;;;4.57;;
16735;SDS011;17990;49.548;9.730;2024-01-16T11:03:29;8.90;;;4.50;;
16735;SDS011;17990;49.548;9.730;2024-01-16T11:06:02;16.37;;;4.20;;
16735;SDS011;17990;49.548;9.730;2024-01-16T11:08:32;7.63;;;3.63;;
16735;SDS011;17990;49.548;9.730;2024-01-16T11:11:01;7.20;;;4.13;;
16735;SDS011;17990;49.548;9.730;2024-01-16T11:13:32;7.20;;;3.80;;
16735;SDS011;17990;49.548;9.730;2024-01-16T11:16:00;7.37;;;4.10;;
16735;SDS011;17990;49.548;9.730;2024-01-16T11:18:28;9.67;;;4.20;;
16735;SDS011;17990;49.548;9.730;2024-01-16T11:20:57;10.93;;;3.87;;
16735;SDS011;17990;49.548;9.730;2024-01-16T11:23:24;12.73;;;4.40;;
16735;SDS011;17990;49.548;9.730;2024-01-16T11:25:52;5.90;;;3.43;;
16735;SDS011;17990;49.548;9.730;2024-01-16T11:28:19;8.27;;;3.57;;
16735;SDS011;17990;49.548;9.730;2024-01-16T11:30:47;8.70;;;4.23;;
16735;SDS011;17990;49.548;9.730;2024-01-16T11:36:20;7.50;;;3.77;;
16735;SDS011;17990;49.548;9.730;2024-01-16T11:39:19;12.90;;;4.10;;
16735;SDS011;17990;49.548;9.730;2024-01-16T11:41:53;7.87;;;3.97;;
16735;SDS011;17990;49.548;9.730;2024-01-16T11:44:36;9.03;;;3.67;;
16735;SDS011;17990;49.548;9.730;2024-01-16T11:47:09;13.90;;;4.03;;
16735;SDS011;17990;49.548;9.730;2024-01-16T11:49:41;8.33;;;3.97;;
16735;SDS011;17990;49.548;9.730;2024-01-16T11:52:08;7.03;;;4.17;;
16735;SDS011;17990;49.548;9.730;2024-01-16T11:54:36;10.70;;;4.07;;
16735;SDS011;17990;49.548;9.730;2024-01-16T11:57:10;15.13;;;4.40;;
16735;SDS011;17990;49.548;9.730;2024-01-16T12:00:03;18.67;;;5.60;;
16735;SDS011;17990;49.548;9.730;2024-01-16T12:02:51;11.83;;;4.50;;
16735;SDS011;17990;49.548;9.730;2024-01-16T12:05:19;8.73;;;3.63;;
16735;SDS011;17990;49.548;9.730;2024-01-16T12:07:46;9.17;;;4.00;;
16735;SDS011;17990;49.548;9.730;2024-01-16T12:10:16;8.87;;;4.20;;
16735;SDS011;17990;49.548;9.730;2024-01-16T12:12:44;12.80;;;3.90;;
16735;SDS011;17990;49.548;9.730;2024-01-16T12:15:15;17.10;;;4.13;;
16735;SDS011;17990;49.548;9.730;2024-01-16T12:17:57;6.73;;;3.60;;
16735;SDS011;17990;49.548;9.730;2024-01-16T12:20:25;7.80;;;3.70;;
16735;SDS011;17990;49.548;9.730;2024-01-16T12:22:54;8.90;;;3.67;;
16735;SDS011;17990;49.548;9.730;2024-01-16T12:25:22;14.60;;;3.63;;
16735;SDS011;17990;49.548;9.730;2024-01-16T12:27:55;7.70;;;3.13;;
16735;SDS011;17990;49.548;9.730;2024-01-16T12:30:24;10.60;;;3.90;;
16735;SDS011;17990;49.548;9.730;2024-01-16T12:32:53;8.13;;;3.53;;
16735;SDS011;17990;49.548;9.730;2024-01-16T12:35:31;11.97;;;4.10;;
16735;SDS011;17990;49.548;9.730;2024-01-16T12:37:59;9.67;;;4.17;;
16735;SDS011;17990;49.548;9.730;2024-01-16T12:40:26;7.53;;;3.80;;
16735;SDS011;17990;49.548;9.730;2024-01-16T12:42:53;17.10;;;4.00;;
16735;SDS011;17990;49.548;9.730;2024-01-16T12:45:21;10.70;;;4.25;;
16735;SDS011;17990;49.548;9.730;2024-01-16T12:47:51;5.30;;;3.40;;
16735;SDS011;17990;49.548;9.730;2024-01-16T12:50:20;10.63;;;3.63;;
16735;SDS011;17990;49.548;9.730;2024-01-16T12:52:48;18.07;;;4.40;;
16735;SDS011;17990;49.548;9.730;2024-01-16T12:55:16;8.67;;;3.90;;
16735;SDS011;17990;49.548;9.730;2024-01-16T12:57:43;14.50;;;4.20;;
16735;SDS011;17990;49.548;9.730;2024-01-16T13:00:20;10.13;;;3.47;;
16735;SDS011;17990;49.548;9.730;2024-01-16T13:02:49;13.40;;;4.57;;
16735;SDS011;17990;49.548;9.730;2024-01-16T13:05:16;9.50;;;3.60;;
16735;SDS011;17990;49.548;9.730;2024-01-16T13:07:45;7.27;;;3.77;;
16735;SDS011;17990;49.548;9.730;2024-01-16T13:10:12;9.67;;;3.50;;
16735;SDS011;17990;49.548;9.730;2024-01-16T13:12:43;9.57;;;3.80;;
16735;SDS011;17990;49.548;9.730;2024-01-16T13:15:10;8.63;;;3.90;;
16735;SDS011;17990;49.548;9.730;2024-01-16T13:17:41;19.30;;;4.17;;
16735;SDS011;17990;49.548;9.730;2024-01-16T13:20:08;6.70;;;3.53;;
16735;SDS011;17990;49.548;9.730;2024-01-16T13:22:38;11.27;;;4.13;;
16735;SDS011;17990;49.548;9.730;2024-01-16T13:25:06;9.57;;;3.90;;
16735;SDS011;17990;49.548;9.730;2024-01-16T13:27:33;10.67;;;3.80;;
16735;SDS011;17990;49.548;9.730;2024-01-16T13:30:00;7.93;;;4.00;;
16735;SDS011;17990;49.548;9.730;2024-01-16T13:32:27;8.17;;;3.70;;
16735;SDS011;17990;49.548;9.730;2024-01-16T13:34:54;9.07;;;3.70;;
16735;SDS011;17990;49.548;9.730;2024-01-16T13:37:21;9.33;;;3.60;;
16735;SDS011;17990;49.548;9.730;2024-01-16T13:39:48;7.17;;;3.37;;
16735;SDS011;17990;49.548;9.730;2024-01-16T13:42:16;9.73;;;3.10;;
16735;SDS011;17990;49.548;9.730;2024-01-16T13:44:45;6.60;;;3.20;;
16735;SDS011;17990;49.548;9.730;2024-01-16T13:47:12;7.13;;;3.10;;
16735;SDS011;17990;49.548;9.730;2024-01-16T13:49:40;12.33;;;4.13;;
16735;SDS011;17990;49.548;9.730;2024-01-16T13:52:07;8.47;;;3.63;;
16735;SDS011;17990;49.548;9.730;2024-01-16T13:54:35;11.40;;;3.53;;
16735;SDS011;17990;49.548;9.730;2024-01-16T13:57:03;6.00;;;3.17;;
16735;SDS011;17990;49.548;9.730;2024-01-16T13:59:32;8.17;;;3.50;;
16735;SDS011;17990;49.548;9.730;2024-01-16T14:01:59;10.77;;;3.60;;
16735;SDS011;17990;49.548;9.730;2024-01-16T14:04:26;7.40;;;4.07;;
16735;SDS011;17990;49.548;9.730;2024-01-16T14:06:52;8.57;;;3.00;;
16735;SDS011;17990;49.548;9.730;2024-01-16T14:09:19;9.67;;;3.30;;
16735;SDS011;17990;49.548;9.730;2024-01-16T14:11:46;9.83;;;3.50;;
16735;SDS011;17990;49.548;9.730;2024-01-16T14:14:13;5.17;;;2.13;;
16735;SDS011;17990;49.548;9.730;2024-01-16T14:16:41;7.27;;;2.87;;
16735;SDS011;17990;49.548;9.730;2024-01-16T14:19:08;8.37;;;2.50;;
16735;SDS011;17990;49.548;9.730;2024-01-16T14:21:34;9.13;;;2.90;;
16735;SDS011;17990;49.548;9.730;2024-01-16T14:24:01;5.57;;;2.70;;
16735;SDS011;17990;49.548;9.730;2024-01-16T14:26:28;6.07;;;3.00;;
16735;SDS011;17990;49.548;9.730;2024-01-16T14:28:55;5.37;;;2.40;;
16735;SDS011;17990;49.548;9.730;2024-01-16T14:31:21;10.97;;;3.33;;
16735;SDS011;17990;49.548;9.730;2024-01-16T14:33:50;14.73;;;3.17;;
16735;SDS011;17990;49.548;9.730;2024-01-16T14:36:16;9.40;;;2.77;;
16735;SDS011;17990;49.548;9.730;2024-01-16T14:38:43;7.17;;;2.77;;
16735;SDS011;17990;49.548;9.730;2024-01-16T14:41:10;12.73;;;3.10;;
16735;SDS011;17990;49.548;9.730;2024-01-16T14:43:37;14.47;;;3.57;;
16735;SDS011;17990;49.548;9.730;2024-01-16T14:46:04;11.57;;;2.80;;
16735;SDS011;17990;49.548;9.730;2024-01-16T14:48:35;7.87;;;2.63;;
16735;SDS011;17990;49.548;9.730;2024-01-16T14:51:04;5.53;;;2.60;;
16735;SDS011;17990;49.548;9.730;2024-01-16T14:53:31;6.33;;;2.20;;